sensor_id;sensor_type;location;lat;lon;timestamp;P1;durP1;ratioP1;P2;durP2;ratioP2
62353;SDS011;48391;49.184;2.418;2024-03-17T07:45:27;13.93;;;5.75;;
62353;SDS011;48391;49.184;2.418;2024-03-17T07:47:54;8.07;;;3.92;;
62353;SDS011;48391;49.184;2.418;2024-03-17T07:50:20;13.63;;;4.32;;
62353;SDS011;48391;49.184;2.418;2024-03-17T07:52:47;7.03;;;3.88;;
62353;SDS011;48391;49.184;2.418;2024-03-17T07:55:13;9.20;;;3.92;;
62353;SDS011;48391;49.184;2.418;2024-03-17T07:57:39;8.15;;;3.95;;
62353;SDS011;48391;49.184;2.418;2024-03-17T08:00:06;8.82;;;3.67;;
62353;SDS011;48391;49.184;2.418;2024-03-17T08:02:40;10.75;;;3.92;;
62353;SDS011;48391;49.184;2.418;2024-03-17T08:05:07;8.20;;;4.43;;
62353;SDS011;48391;49.184;2.418;2024-03-17T08:07:33;7.50;;;3.60;;
62353;SDS011;48391;49.184;2.418;2024-03-17T08:09:59;7.55;;;3.55;;
62353;SDS011;48391;49.184;2.418;2024-03-17T08:12:25;7.85;;;4.40;;
62353;SDS011;48391;49.184;2.418;2024-03-17T08:14:54;10.38;;;4.38;;
62353;SDS011;48391;49.184;2.418;2024-03-17T08:17:20;12.50;;;3.83;;
62353;SDS011;48391;49.184;2.418;2024-03-17T08:19:46;16.63;;;3.95;;
62353;SDS011;48391;49.184;2.418;2024-03-17T08:22:13;9.23;;;3.60;;
62353;SDS011;48391;49.184;2.418;2024-03-17T08:24:39;8.02;;;3.22;;
62353;SDS011;48391;49.184;2.418;2024-03-17T08:27:05;12.52;;;3.90;;
62353;SDS011;48391;49.184;2.418;2024-03-17T08:29:31;11.82;;;4.68;;
62353;SDS011;48391;49.184;2.418;2024-03-17T08:31:58;9.93;;;3.35;;
62353;SDS011;48391;49.184;2.418;2024-03-17T08:34:24;14.27;;;4.65;;
62353;SDS011;48391;49.184;2.418;2024-03-17T08:36:50;5.85;;;3.35;;
62353;SDS011;48391;49.184;2.418;2024-03-17T08:39:16;13.93;;;5.20;;
62353;SDS011;48391;49.184;2.418;2024-03-17T08:41:42;12.13;;;4.22;;
62353;SDS011;48391;49.184;2.418;2024-03-17T08:44:09;8.68;;;3.03;;
62353;SDS011;48391;49.184;2.418;2024-03-17T08:46:35;9.35;;;3.25;;
62353;SDS011;48391;49.184;2.418;2024-03-17T08:49:01;17.33;;;4.60;;
62353;SDS011;48391;49.184;2.418;2024-03-17T08:51:27;11.32;;;4.05;;
62353;SDS011;48391;49.184;2.418;2024-03-17T08:53:54;6.65;;;3.22;;
62353;SDS011;48391;49.184;2.418;2024-03-17T08:56:20;8.60;;;3.00;;
62353;SDS011;48391;49.184;2.418;2024-03-17T08:58:48;9.98;;;3.70;;
62353;SDS011;48391;49.184;2.418;2024-03-17T09:01:14;4.15;;;2.60;;
62353;SDS011;48391;49.184;2.418;2024-03-17T09:03:44;10.13;;;3.97;;
62353;SDS011;48391;49.184;2.418;2024-03-17T09:06:14;6.15;;;3.63;;
62353;SDS011;48391;49.184;2.418;2024-03-17T09:08:41;10.05;;;3.90;;
62353;SDS011;48391;49.184;2.418;2024-03-17T09:11:11;9.48;;;3.65;;
62353;SDS011;48391;49.184;2.418;2024-03-17T09:16:03;4.18;;;3.38;;
62353;SDS011;48391;49.184;2.418;2024-03-17T09:18:30;7.47;;;2.72;;
62353;SDS011;48391;49.184;2.418;2024-03-17T09:20:59;8.10;;;3.00;;
62353;SDS011;48391;49.184;2.418;2024-03-17T09:23:28;12.30;;;4.30;;
62353;SDS011;48391;49.184;2.418;2024-03-17T09:25:58;9.13;;;3.38;;
62353;SDS011;48391;49.184;2.418;2024-03-17T09:28:24;9.48;;;4.07;;
62353;SDS011;48391;49.184;2.418;2024-03-17T09:30:50;8.43;;;3.08;;
62353;SDS011;48391;49.184;2.418;2024-03-17T09:33:18;13.95;;;2.97;;
62353;SDS011;48391;49.184;2.418;2024-03-17T09:35:44;9.82;;;3.83;;
62353;SDS011;48391;49.184;2.418;2024-03-17T09:38:10;7.35;;;3.30;;
62353;SDS011;48391;49.184;2.418;2024-03-17T09:40:36;4.82;;;2.75;;
62353;SDS011;48391;49.184;2.418;2024-03-17T09:43:02;7.78;;;3.03;;
62353;SDS011;48391;49.184;2.418;2024-03-17T09:45:28;5.55;;;2.85;;
62353;SDS011;48391;49.184;2.418;2024-03-17T09:47:58;8.88;;;4.00;;
62353;SDS011;48391;49.184;2.418;2024-03-17T09:50:24;4.50;;;2.55;;
62353;SDS011;48391;49.184;2.418;2024-03-17T09:52:50;8.00;;;2.92;;
62353;SDS011;48391;49.184;2.418;2024-03-17T09:55:17;13.02;;;3.28;;
62353;SDS011;48391;49.184;2.418;2024-03-17T09:57:43;5.35;;;2.60;;
62353;SDS011;48391;49.184;2.418;2024-03-17T10:00:11;7.82;;;3.40;;
62353;SDS011;48391;49.184;2.418;2024-03-17T10:02:41;9.27;;;3.03;;
62353;SDS011;48391;49.184;2.418;2024-03-17T10:07:37;15.98;;;2.85;;
62353;SDS011;48391;49.184;2.418;2024-03-17T10:10:11;10.70;;;2.95;;
62353;SDS011;48391;49.184;2.418;2024-03-17T10:12:41;9.20;;;3.45;;
62353;SDS011;48391;49.184;2.418;2024-03-17T10:15:09;10.95;;;4.28;;
62353;SDS011;48391;49.184;2.418;2024-03-17T10:17:36;10.82;;;3.13;;
62353;SDS011;48391;49.184;2.418;2024-03-17T10:20:12;5.72;;;2.80;;
62353;SDS011;48391;49.184;2.418;2024-03-17T10:22:41;9.38;;;3.58;;
62353;SDS011;48391;49.184;2.418;2024-03-17T10:25:07;14.57;;;4.00;;
62353;SDS011;48391;49.184;2.418;2024-03-17T10:27:34;11.57;;;4.00;;
62353;SDS011;48391;49.184;2.418;2024-03-17T10:30:00;7.90;;;4.82;;
62353;SDS011;48391;49.184;2.418;2024-03-17T10:32:26;6.30;;;3.75;;
62353;SDS011;48391;49.184;2.418;2024-03-17T10:34:53;7.63;;;3.28;;
62353;SDS011;48391;49.184;2.418;2024-03-17T10:37:20;8.05;;;3.83;;
62353;SDS011;48391;49.184;2.418;2024-03-17T10:39:52;15.77;;;3.95;;
62353;SDS011;48391;49.184;2.418;2024-03-17T10:42:24;6.63;;;3.72;;
62353;SDS011;48391;49.184;2.418;2024-03-17T10:44:53;8.50;;;4.82;;
62353;SDS011;48391;49.184;2.418;2024-03-17T10:47:21;11.73;;;3.67;;
62353;SDS011;48391;49.184;2.418;2024-03-17T10:49:47;10.30;;;4.22;;
62353;SDS011;48391;49.184;2.418;2024-03-17T10:52:16;14.07;;;4.47;;
62353;SDS011;48391;49.184;2.418;2024-03-17T10:54:48;15.53;;;5.50;;
62353;SDS011;48391;49.184;2.418;2024-03-17T10:59:41;8.80;;;3.83;;
62353;SDS011;48391;49.184;2.418;2024-03-17T11:02:23;7.18;;;4.18;;
62353;SDS011;48391;49.184;2.418;2024-03-17T11:04:56;10.20;;;4.00;;
62353;SDS011;48391;49.184;2.418;2024-03-17T11:07:23;9.48;;;4.10;;
62353;SDS011;48391;49.184;2.418;2024-03-17T11:09:51;10.02;;;3.97;;
62353;SDS011;48391;49.184;2.418;2024-03-17T11:20:30;12.32;;;4.10;;
62353;SDS011;48391;49.184;2.418;2024-03-17T11:22:59;8.32;;;2.85;;
62353;SDS011;48391;49.184;2.418;2024-03-17T11:27:54;8.50;;;3.20;;
62353;SDS011;48391;49.184;2.418;2024-03-17T11:35:50;9.77;;;2.90;;
62353;SDS011;48391;49.184;2.418;2024-03-17T11:38:50;9.95;;;2.85;;
62353;SDS011;48391;49.184;2.418;2024-03-17T11:44:08;7.10;;;3.33;;
62353;SDS011;48391;49.184;2.418;2024-03-17T11:46:38;9.00;;;3.30;;
62353;SDS011;48391;49.184;2.418;2024-03-17T11:49:04;7.53;;;3.85;;
62353;SDS011;48391;49.184;2.418;2024-03-17T11:51:32;8.00;;;2.70;;
62353;SDS011;48391;49.184;2.418;2024-03-17T11:54:00;4.55;;;1.90;;
62353;SDS011;48391;49.184;2.418;2024-03-17T11:56:26;2.50;;;1.77;;
62353;SDS011;48391;49.184;2.418;2024-03-17T11:59:06;3.15;;;2.33;;
62353;SDS011;48391;49.184;2.418;2024-03-17T12:01:36;2.42;;;1.60;;
62353;SDS011;48391;49.184;2.418;2024-03-17T12:04:04;3.65;;;1.77;;
62353;SDS011;48391;49.184;2.418;2024-03-17T12:06:31;6.18;;;2.72;;
62353;SDS011;48391;49.184;2.418;2024-03-17T12:11:42;9.70;;;3.17;;
62353;SDS011;48391;49.184;2.418;2024-03-17T12:14:18;11.85;;;2.40;;
62353;SDS011;48391;49.184;2.418;2024-03-17T12:16:50;4.30;;;2.92;;
62353;SDS011;48391;49.184;2.418;2024-03-17T12:19:17;4.40;;;3.15;;
62353;SDS011;48391;49.184;2.418;2024-03-17T12:21:44;3.17;;;2.17;;
62353;SDS011;48391;49.184;2.418;2024-03-17T12:24:14;10.50;;;3.40;;
62353;SDS011;48391;49.184;2.418;2024-03-17T12:26:41;7.72;;;2.38;;
62353;SDS011;48391;49.184;2.418;2024-03-17T12:29:27;7.60;;;1.90;;
62353;SDS011;48391;49.184;2.418;2024-03-17T12:31:55;6.05;;;3.83;;
62353;SDS011;48391;49.184;2.418;2024-03-17T12:34:22;5.20;;;2.13;;
62353;SDS011;48391;49.184;2.418;2024-03-17T12:36:48;5.15;;;2.38;;
62353;SDS011;48391;49.184;2.418;2024-03-17T12:39:18;8.38;;;3.67;;
62353;SDS011;48391;49.184;2.418;2024-03-17T12:42:06;5.20;;;2.83;;
62353;SDS011;48391;49.184;2.418;2024-03-17T12:44:31;3.25;;;1.95;;
62353;SDS011;48391;49.184;2.418;2024-03-17T12:47:01;6.18;;;2.47;;
62353;SDS011;48391;49.184;2.418;2024-03-17T12:49:31;3.92;;;2.63;;
62353;SDS011;48391;49.184;2.418;2024-03-17T12:52:04;7.63;;;2.65;;
62353;SDS011;48391;49.184;2.418;2024-03-17T12:54:31;10.02;;;3.85;;
62353;SDS011;48391;49.184;2.418;2024-03-17T12:57:07;5.30;;;3.00;;
62353;SDS011;48391;49.184;2.418;2024-03-17T12:59:52;5.20;;;2.78;;
62353;SDS011;48391;49.184;2.418;2024-03-17T13:02:41;8.00;;;2.95;;
62353;SDS011;48391;49.184;2.418;2024-03-17T13:05:07;11.18;;;3.83;;
62353;SDS011;48391;49.184;2.418;2024-03-17T13:07:34;9.50;;;3.15;;
62353;SDS011;48391;49.184;2.418;2024-03-17T13:10:03;13.60;;;3.45;;
62353;SDS011;48391;49.184;2.418;2024-03-17T13:12:29;6.90;;;3.67;;
62353;SDS011;48391;49.184;2.418;2024-03-17T13:14:55;11.52;;;3.90;;
62353;SDS011;48391;49.184;2.418;2024-03-17T13:17:21;7.97;;;3.38;;
62353;SDS011;48391;49.184;2.418;2024-03-17T13:19:48;5.85;;;2.72;;
62353;SDS011;48391;49.184;2.418;2024-03-17T13:22:14;7.22;;;3.08;;
62353;SDS011;48391;49.184;2.418;2024-03-17T13:24:40;9.75;;;2.85;;
62353;SDS011;48391;49.184;2.418;2024-03-17T13:27:07;2.88;;;2.30;;
62353;SDS011;48391;49.184;2.418;2024-03-17T13:29:34;5.55;;;2.65;;
62353;SDS011;48391;49.184;2.418;2024-03-17T13:32:03;6.13;;;2.47;;
62353;SDS011;48391;49.184;2.418;2024-03-17T13:34:30;12.85;;;3.65;;
62353;SDS011;48391;49.184;2.418;2024-03-17T13:36:56;6.53;;;3.13;;
62353;SDS011;48391;49.184;2.418;2024-03-17T13:39:22;4.63;;;3.35;;
62353;SDS011;48391;49.184;2.418;2024-03-17T13:41:49;9.63;;;2.92;;
62353;SDS011;48391;49.184;2.418;2024-03-17T13:44:17;6.00;;;2.70;;
62353;SDS011;48391;49.184;2.418;2024-03-17T13:46:44;6.45;;;3.13;;
62353;SDS011;48391;49.184;2.418;2024-03-17T13:49:10;8.30;;;3.40;;
62353;SDS011;48391;49.184;2.418;2024-03-17T13:51:36;6.70;;;3.58;;
62353;SDS011;48391;49.184;2.418;2024-03-17T13:54:02;9.00;;;3.95;;
62353;SDS011;48391;49.184;2.418;2024-03-17T13:56:28;11.45;;;5.63;;
62353;SDS011;48391;49.184;2.418;2024-03-17T13:58:54;15.75;;;5.93;;
62353;SDS011;48391;49.184;2.418;2024-03-17T14:01:20;17.27;;;6.82;;
62353;SDS011;48391;49.184;2.418;2024-03-17T14:03:46;13.07;;;4.90;;
62353;SDS011;48391;49.184;2.418;2024-03-17T14:06:12;14.48;;;6.88;;
62353;SDS011;48391;49.184;2.418;2024-03-17T14:08:39;15.40;;;5.53;;
62353;SDS011;48391;49.184;2.418;2024-03-17T14:11:05;13.70;;;5.43;;
62353;SDS011;48391;49.184;2.418;2024-03-17T14:13:31;8.52;;;5.53;;
62353;SDS011;48391;49.184;2.418;2024-03-17T14:15:57;13.52;;;5.80;;
62353;SDS011;48391;49.184;2.418;2024-03-17T14:18:23;14.13;;;4.72;;
62353;SDS011;48391;49.184;2.418;2024-03-17T14:20:50;8.57;;;5.35;;
62353;SDS011;48391;49.184;2.418;2024-03-17T14:23:16;6.43;;;4.35;;
62353;SDS011;48391;49.184;2.418;2024-03-17T14:25:42;10.80;;;5.20;;
62353;SDS011;48391;49.184;2.418;2024-03-17T14:28:08;17.40;;;7.13;;
62353;SDS011;48391;49.184;2.418;2024-03-17T14:30:34;10.23;;;5.15;;
62353;SDS011;48391;49.184;2.418;2024-03-17T14:33:03;14.50;;;5.75;;
62353;SDS011;48391;49.184;2.418;2024-03-17T14:35:31;14.45;;;5.20;;
62353;SDS011;48391;49.184;2.418;2024-03-17T14:37:58;9.60;;;4.82;;
62353;SDS011;48391;49.184;2.418;2024-03-17T14:40:24;11.30;;;5.03;;
62353;SDS011;48391;49.184;2.418;2024-03-17T14:42:53;10.75;;;4.35;;
62353;SDS011;48391;49.184;2.418;2024-03-17T14:45:22;10.98;;;4.43;;
62353;SDS011;48391;49.184;2.418;2024-03-17T14:47:51;10.05;;;4.70;;
62353;SDS011;48391;49.184;2.418;2024-03-17T14:50:17;6.82;;;4.47;;
62353;SDS011;48391;49.184;2.418;2024-03-17T14:52:44;9.18;;;4.32;;
62353;SDS011;48391;49.184;2.418;2024-03-17T14:55:10;8.60;;;4.57;;
62353;SDS011;48391;49.184;2.418;2024-03-17T14:57:37;8.23;;;5.03;;
62353;SDS011;48391;49.184;2.418;2024-03-17T15:00:07;9.65;;;5.28;;
62353;SDS011;48391;49.184;2.418;2024-03-17T15:02:39;9.32;;;4.38;;
62353;SDS011;48391;49.184;2.418;2024-03-17T15:05:08;9.25;;;3.90;;
62353;SDS011;48391;49.184;2.418;2024-03-17T15:07:34;9.13;;;3.20;;
62353;SDS011;48391;49.184;2.418;2024-03-17T15:10:01;6.20;;;2.97;;
62353;SDS011;48391;49.184;2.418;2024-03-17T15:12:28;9.77;;;2.58;;
62353;SDS011;48391;49.184;2.418;2024-03-17T15:14:54;5.05;;;3.28;;
62353;SDS011;48391;49.184;2.418;2024-03-17T15:17:21;11.15;;;3.10;;
62353;SDS011;48391;49.184;2.418;2024-03-17T15:19:47;8.88;;;2.67;;
62353;SDS011;48391;49.184;2.418;2024-03-17T15:22:13;5.78;;;2.85;;
62353;SDS011;48391;49.184;2.418;2024-03-17T15:24:39;5.32;;;2.70;;
62353;SDS011;48391;49.184;2.418;2024-03-17T15:27:05;7.25;;;2.42;;
62353;SDS011;48391;49.184;2.418;2024-03-17T15:29:31;4.93;;;2.17;;
62353;SDS011;48391;49.184;2.418;2024-03-17T15:31:57;6.22;;;2.40;;
62353;SDS011;48391;49.184;2.418;2024-03-17T15:34:23;2.15;;;1.80;;
62353;SDS011;48391;49.184;2.418;2024-03-17T15:36:50;4.97;;;2.08;;
62353;SDS011;48391;49.184;2.418;2024-03-17T15:39:16;3.20;;;2.17;;
62353;SDS011;48391;49.184;2.418;2024-03-17T15:41:42;5.28;;;2.65;;
62353;SDS011;48391;49.184;2.418;2024-03-17T15:44:08;3.15;;;2.17;;
62353;SDS011;48391;49.184;2.418;2024-03-17T15:46:35;6.95;;;2.75;;
62353;SDS011;48391;49.184;2.418;2024-03-17T15:49:02;5.68;;;3.28;;
62353;SDS011;48391;49.184;2.418;2024-03-17T15:51:28;8.30;;;2.10;;
62353;SDS011;48391;49.184;2.418;2024-03-17T15:53:55;3.22;;;2.50;;
62353;SDS011;48391;49.184;2.418;2024-03-17T15:56:21;6.70;;;1.80;;
62353;SDS011;48391;49.184;2.418;2024-03-17T15:58:47;3.88;;;1.45;;
62353;SDS011;48391;49.184;2.418;2024-03-17T16:01:13;5.72;;;1.90;;
62353;SDS011;48391;49.184;2.418;2024-03-17T16:03:40;7.25;;;2.00;;
62353;SDS011;48391;49.184;2.418;2024-03-17T16:08:33;3.72;;;2.00;;
62353;SDS011;48391;49.184;2.418;2024-03-17T16:10:59;3.65;;;1.42;;
62353;SDS011;48391;49.184;2.418;2024-03-17T16:13:26;4.03;;;1.75;;
62353;SDS011;48391;49.184;2.418;2024-03-17T16:15:56;5.90;;;1.88;;
62353;SDS011;48391;49.184;2.418;2024-03-17T16:18:23;3.45;;;1.35;;
62353;SDS011;48391;49.184;2.418;2024-03-17T16:23:21;6.00;;;1.42;;
62353;SDS011;48391;49.184;2.418;2024-03-17T16:25:50;2.35;;;1.05;;
62353;SDS011;48391;49.184;2.418;2024-03-17T16:28:19;3.50;;;1.65;;
62353;SDS011;48391;49.184;2.418;2024-03-17T16:30:46;2.58;;;1.42;;
62353;SDS011;48391;49.184;2.418;2024-03-17T16:33:12;4.32;;;2.38;;
62353;SDS011;48391;49.184;2.418;2024-03-17T16:35:38;4.57;;;1.67;;
62353;SDS011;48391;49.184;2.418;2024-03-17T16:38:10;3.80;;;1.85;;
62353;SDS011;48391;49.184;2.418;2024-03-17T16:40:36;2.97;;;1.48;;
62353;SDS011;48391;49.184;2.418;2024-03-17T16:43:02;3.83;;;1.48;;
62353;SDS011;48391;49.184;2.418;2024-03-17T16:45:28;3.00;;;1.20;;
62353;SDS011;48391;49.184;2.418;2024-03-17T16:47:54;4.32;;;1.48;;
62353;SDS011;48391;49.184;2.418;2024-03-17T16:50:20;2.05;;;1.45;;
62353;SDS011;48391;49.184;2.418;2024-03-17T16:52:46;4.30;;;1.83;;
62353;SDS011;48391;49.184;2.418;2024-03-17T16:55:12;2.80;;;1.55;;
62353;SDS011;48391;49.184;2.418;2024-03-17T16:57:39;4.53;;;2.83;;
62353;SDS011;48391;49.184;2.418;2024-03-17T17:00:06;3.15;;;1.85;;
62353;SDS011;48391;49.184;2.418;2024-03-17T17:02:41;2.97;;;1.73;;
62353;SDS011;48391;49.184;2.418;2024-03-17T17:05:09;2.03;;;1.85;;
62353;SDS011;48391;49.184;2.418;2024-03-17T17:07:38;6.10;;;3.45;;
62353;SDS011;48391;49.184;2.418;2024-03-17T17:10:05;5.00;;;3.60;;
62353;SDS011;48391;49.184;2.418;2024-03-17T17:12:33;3.35;;;2.25;;
62353;SDS011;48391;49.184;2.418;2024-03-17T17:14:59;2.40;;;1.70;;
62353;SDS011;48391;49.184;2.418;2024-03-17T17:17:27;3.65;;;1.10;;
62353;SDS011;48391;49.184;2.418;2024-03-17T17:19:54;4.43;;;1.98;;
62353;SDS011;48391;49.184;2.418;2024-03-17T17:22:20;1.85;;;1.42;;
62353;SDS011;48391;49.184;2.418;2024-03-17T17:24:46;3.83;;;1.50;;
62353;SDS011;48391;49.184;2.418;2024-03-17T17:27:13;2.95;;;1.40;;
62353;SDS011;48391;49.184;2.418;2024-03-17T17:29:39;3.30;;;1.55;;
62353;SDS011;48391;49.184;2.418;2024-03-17T17:32:05;2.72;;;1.70;;
62353;SDS011;48391;49.184;2.418;2024-03-17T17:34:32;10.63;;;2.88;;
62353;SDS011;48391;49.184;2.418;2024-03-17T17:36:59;5.90;;;3.63;;
62353;SDS011;48391;49.184;2.418;2024-03-17T17:39:25;8.73;;;4.13;;
62353;SDS011;48391;49.184;2.418;2024-03-17T17:41:51;6.35;;;3.75;;
62353;SDS011;48391;49.184;2.418;2024-03-17T17:44:17;7.32;;;4.40;;
62353;SDS011;48391;49.184;2.418;2024-03-17T17:46:43;6.97;;;4.30;;
62353;SDS011;48391;49.184;2.418;2024-03-17T17:49:09;4.78;;;2.45;;
62353;SDS011;48391;49.184;2.418;2024-03-17T17:51:35;2.85;;;1.75;;
62353;SDS011;48391;49.184;2.418;2024-03-17T17:54:02;8.75;;;1.80;;
62353;SDS011;48391;49.184;2.418;2024-03-17T17:56:29;8.38;;;2.10;;
62353;SDS011;48391;49.184;2.418;2024-03-17T17:58:55;7.47;;;1.70;;
62353;SDS011;48391;49.184;2.418;2024-03-17T18:01:21;3.58;;;2.28;;
62353;SDS011;48391;49.184;2.418;2024-03-17T18:03:48;5.38;;;1.85;;
62353;SDS011;48391;49.184;2.418;2024-03-17T18:06:16;7.95;;;1.80;;
62353;SDS011;48391;49.184;2.418;2024-03-17T18:08:42;2.28;;;2.03;;
62353;SDS011;48391;49.184;2.418;2024-03-17T18:11:09;2.90;;;2.00;;
62353;SDS011;48391;49.184;2.418;2024-03-17T18:16:06;9.40;;;2.97;;
62353;SDS011;48391;49.184;2.418;2024-03-17T18:18:35;4.40;;;2.40;;
62353;SDS011;48391;49.184;2.418;2024-03-17T18:21:02;4.18;;;2.50;;
62353;SDS011;48391;49.184;2.418;2024-03-17T18:23:28;4.43;;;2.38;;
62353;SDS011;48391;49.184;2.418;2024-03-17T18:25:55;4.30;;;3.15;;
62353;SDS011;48391;49.184;2.418;2024-03-17T18:28:21;4.97;;;4.30;;
62353;SDS011;48391;49.184;2.418;2024-03-17T18:30:48;8.68;;;5.90;;
62353;SDS011;48391;49.184;2.418;2024-03-17T18:33:14;13.05;;;6.95;;
62353;SDS011;48391;49.184;2.418;2024-03-17T18:35:47;10.95;;;5.72;;
62353;SDS011;48391;49.184;2.418;2024-03-17T18:38:17;14.52;;;8.32;;
62353;SDS011;48391;49.184;2.418;2024-03-17T18:40:43;14.57;;;8.98;;
62353;SDS011;48391;49.184;2.418;2024-03-17T18:43:10;16.85;;;8.48;;
